Ana Sayfa
METAR-TAF:

METAR-TAF

Havaalanları :

Griffiss_Air_Force_Base

Rome, New York, Amerika Birleşik Devletleri

Enlem: 43-14N, Boylam: 075-24W, yükseklik: 154 m

Güncel hava durumu gözlemi

Rapor saat 19:53 UTC de 1 saat ve 0 dakika önce yapıldı.
Sakin rüzgar
Sıcaklık -1°C
Nem 43%
Basınç 1034 hPa
Görüş mesafesi: 16.1 km
Açık gökyüzü

METAR: KRME 161953Z 00000KT 10SM CLR M01/M12 A3052 RMK AO2 SLP340 T10061122

Saat: 15:53 (20:53 UTC)

Tahmin

Rapor saat 17:34 UTC de 3 saat ve 19 dakika önce yapıldı.
Ayın 16'si saat 18 UTC'den ayın 17'si saat 18 UTC'ye kadar geçerli Tahmin
Rüzgar değişken yönden 3 kt
Görüş mesafesi: 10 km
Açık gökyüzü

TAF: KRME 161734Z 1618/1718 VRB03KT P6SM SKC

4.000'den fazla havaalanı için hava durumu gözlemleri ve tahminleri (METAR ve TAF raporları).

Kullanılabilir istasyonlar harita üzerinde sarı ve kırmızı noktalarla gösterilir.

İstasyonun adını görmek için fareyi noktanın üzerinde gezdirin.

Sonrasında hava gözlem ve tahminlerini görmek için tıklayın.

Haritayı değiştirmek için: yaklaştırmak için siyah artı işaretli yeşil düğmeye ve uzaklaştırmak için de eksi işaretli düğmeye hızla tıklayın; bitişik haritalar için yeşil okları kullanın.


METAR-TAF: